Latest Weather Observations for Cape Byron

IDN60801

Issued at 4:52 am EDT Saturday 15 December 2018 (issued every 10 minutes, with the page automatically refreshed every 10 minutes)

About weather observations | Map of weather stations | Latest weather observations for NSW | Other Formats
Station Details ID: 058216 Name: CAPE BYRON AWS Lat: -28.64 Lon: 153.64 Height: 95.0 m
Data from the previous 72 hours. | See also: Recent months at Cape Byron
Date/Time
EDT
Temp
°C
App
Temp
°C
Dew
Point
°C
Rel
Hum
%
Delta-T
°C
Wind Press
QNH
hPa
Press
MSL
hPa
Rain since
9am
mm
Dir  Spd
km/h
Gust
km/h
Spd
kts
Gust
kts
15/04:30am 23.3 18.1 22.6 96 0.5 NE 54 61 29 33 1007.1 1006.6 5.4
15/04:26am 23.4 19.0 22.7 96 0.5 NE 50 61 27 33 1006.9 1006.4 5.4
15/04:00am 23.4 24.1 22.9 97 0.3 NE 24 43 13 23 1007.0 1006.5 5.4
15/03:30am 23.2 24.1 22.7 97 0.3 NNE 22 37 12 20 1006.9 1006.4 4.6
15/03:00am 23.3 23.0 22.6 96 0.5 N 28 43 15 23 1007.0 1006.5 4.4
15/02:30am 23.3 23.4 22.6 96 0.5 NNE 26 37 14 20 1007.2 1006.7 0.8
15/02:00am 23.4 22.2 22.6 95 0.5 NNE 33 44 18 24 1007.2 1006.7 0.0
15/01:30am 23.5 22.3 22.7 95 0.5 NNE 33 44 18 24 1007.5 1007.0 0.0
15/01:00am 23.7 24.0 22.9 95 0.5 NE 26 35 14 19 1008.1 1007.6 0.0
15/12:30am 23.7 22.7 22.7 94 0.7 NE 32 44 17 24 1008.3 1007.8 0.0
15/12:00am 23.7 23.0 22.5 93 0.8 NNE 30 43 16 23 1008.0 1007.5 0.0
 
Date/Time
EDT
Temp
°C
App
Temp
°C
Dew
Point
°C
Rel
Hum
%
Delta-T
°C
Wind Press
QNH
hPa
Press
MSL
hPa
Rain since
9am
mm
Dir  Spd
km/h
Gust
km/h
Spd
kts
Gust
kts
14/11:30pm 23.7 22.4 22.5 93 0.8 NNE 33 50 18 27 1007.8 1007.3 0.0
14/11:00pm 23.7 22.7 22.7 94 0.7 NNE 32 43 17 23 1008.1 1007.6 0.0
14/10:30pm 23.6 24.2 22.8 95 0.5 NNE 24 35 13 19 1008.4 1007.9 0.0
14/10:00pm 23.4 24.2 22.4 94 0.7 NNE 22 32 12 17 1007.8 1007.3 0.0
14/09:30pm 23.5 23.4 22.3 93 0.8 NNE 26 39 14 21 1007.3 1006.8 0.0
14/09:00pm 23.5 22.6 22.1 92 0.9 N 30 39 16 21 1007.4 1006.9 0.0
14/08:30pm 23.6 21.7 22.0 91 1.1 NNE 35 50 19 27 1007.4 1006.9 0.0
14/08:22pm 23.6 22.2 21.9 90 1.1 NNE 32 50 17 27 1007.5 1007.0 0.0
14/08:00pm 23.5 21.7 21.6 89 1.3 NNE 33 46 18 25 1007.6 1007.1 0.0
14/07:41pm 23.3 22.3 21.2 88 1.4 NNE 28 46 15 25 1007.1 1006.6 0.0
14/07:30pm 23.3 22.7 21.9 92 0.9 N 28 37 15 20 1007.0 1006.5 0.0
14/07:04pm 23.5 22.2 22.1 92 0.9 NNE 32 50 17 27 1006.0 1005.5 0.0
14/07:00pm 23.5 21.6 22.1 92 0.9 NNE 35 50 19 27 1005.9 1005.4 0.0
14/06:36pm 23.6 22.2 22.0 91 1.1 NNE 32 50 17 27 1005.8 1005.3 0.0
14/06:30pm 23.6 21.6 21.9 90 1.1 NNE 35 50 19 27 1005.7 1005.2 0.0
14/06:00pm 23.7 23.0 21.8 89 1.3 NNE 28 41 15 22 1005.4 1005.0 0.0
14/05:30pm 24.1 23.2 22.2 89 1.3 NE 30 41 16 22 1004.7 1004.3 0.0
14/05:00pm 24.6 23.7 22.1 86 1.7 NNE 30 43 16 23 1004.4 1004.0 0.0
14/04:30pm 25.1 24.5 22.0 83 2.1 NE 28 39 15 21 1004.5 1004.1 0.0
14/04:14pm 25.2 24.9 22.5 85 1.8 NNE 28 46 15 25 1004.7 1004.3 0.0
14/04:00pm 25.3 25.3 22.4 84 2.0 NNE 26 35 14 19 1004.9 1004.5 0.0
14/03:30pm 25.4 24.8 21.9 81 2.3 NNE 28 39 15 21 1005.0 1004.6 0.0
14/03:00pm 25.5 24.5 21.2 77 2.9 NNE 28 43 15 23 1005.2 1004.8 0.0
14/02:46pm 25.4 23.6 21.1 77 2.8 NNE 32 50 17 27 1005.3 1004.9 0.0
14/02:30pm 25.2 23.1 20.9 77 2.8 NNE 33 48 18 26 1005.3 1004.9 0.0
14/02:00pm 24.2 22.6 20.1 78 2.7 NNE 28 43 15 23 1005.6 1005.1 0.0
14/01:30pm 24.5 23.1 19.6 74 3.2 N 26 35 14 19 1005.2 1004.8 0.0
14/01:00pm 25.3 24.8 21.4 79 2.6 N 26 33 14 18 1005.8 1005.3 0.0
14/12:30pm 24.4 24.9 21.9 86 1.7 N 22 32 12 17 1005.8 1005.3 0.0
14/12:00pm 24.0 22.7 22.1 89 1.3 NNE 32 46 17 25 1005.7 1005.2 0.0
14/11:30am 24.2 22.6 21.9 87 1.5 NNE 33 48 18 26 1005.4 1005.0 0.0
14/11:00am 24.2 21.8 21.9 87 1.5 NNE 37 52 20 28 1005.9 1005.4 0.0
14/10:30am 23.8 22.3 21.7 88 1.4 NNE 32 50 17 27 1006.2 1005.7 0.0
14/10:22am 23.9 22.4 21.8 88 1.4 NNE 32 50 17 27 1006.1 1005.6 0.0
14/10:00am 23.7 23.0 21.8 89 1.3 N 28 39 15 21 1006.2 1005.7 0.0
14/09:30am 23.6 22.8 21.7 89 1.3 NNE 28 43 15 23 1005.9 1005.4 0.0
14/09:00am 23.5 21.3 21.4 88 1.4 NNE 35 48 19 26 1005.4 1005.0 0.0
14/08:34am 23.5 21.9 21.6 89 1.3 NNE 32 50 17 27 1005.4 1005.0 0.0
14/08:30am 23.5 22.3 21.6 89 1.3 NNE 30 41 16 22 1005.6 1005.1 0.0
14/08:00am 23.4 22.5 21.5 89 1.3 NNE 28 41 15 22 1005.8 1005.3 0.0
14/07:30am 23.3 22.5 21.6 90 1.1 NNE 28 41 15 22 1005.7 1005.2 0.0
14/07:00am 23.2 21.6 21.5 90 1.1 N 32 43 17 23 1005.3 1004.9 0.0
14/06:30am 23.0 21.3 21.3 90 1.1 N 32 41 17 22 1005.0 1004.6 0.0
14/06:00am 22.6 22.3 21.1 91 1.0 N 24 33 13 18 1004.7 1004.3 0.0
14/05:30am 22.7 20.9 21.2 91 1.0 N 32 43 17 23 1004.2 1003.8 0.0
14/05:00am 22.8 21.0 21.1 90 1.1 N 32 46 17 25 1004.2 1003.8 0.0
14/04:48am 22.8 21.7 21.1 90 1.1 N 28 48 15 26 1003.8 1003.4 0.0
14/04:30am 22.8 21.4 21.1 90 1.1 N 30 41 16 22 1004.0 1003.6 0.0
14/04:04am 22.8 20.2 20.7 88 1.4 N 35 54 19 29 1003.5 1003.1 0.0
14/04:00am 22.8 19.4 20.7 88 1.4 N 39 54 21 29 1003.4 1003.0 0.0
14/03:30am 22.5 20.9 20.8 90 1.1 N 30 44 16 24 1004.0 1003.6 0.0
14/03:00am 22.8 21.6 20.9 89 1.2 N 28 37 15 20 1004.1 1003.7 0.0
14/02:30am 23.0 21.8 20.9 88 1.4 N 28 39 15 21 1004.6 1004.2 0.0
14/02:00am 23.1 21.5 20.8 87 1.5 NNE 30 39 16 21 1005.0 1004.6 0.0
14/01:30am 22.6 21.6 20.5 88 1.4 N 26 35 14 19 1005.8 1005.3 0.0
14/01:00am 22.4 22.0 20.1 87 1.5 N 22 32 12 17 1006.2 1005.7 0.0
14/12:30am 22.3 22.7 19.8 86 1.6 NNW 17 26 9 14 1006.5 1006.0 0.0
14/12:00am 22.2 20.8 19.7 86 1.6 N 26 33 14 18 1006.6 1006.1 0.0
 
Date/Time
EDT
Temp
°C
App
Temp
°C
Dew
Point
°C
Rel
Hum
%
Delta-T
°C
Wind Press
QNH
hPa
Press
MSL
hPa
Rain since
9am
mm
Dir  Spd
km/h
Gust
km/h
Spd
kts
Gust
kts
13/11:30pm 22.0 23.1 19.7 87 1.5 N 13 20 7 11 1007.2 1006.7 0.0
13/11:00pm 22.3 23.3 20.2 88 1.4 NW 15 32 8 17 1007.1 1006.6 0.0
13/10:30pm 22.3 22.0 20.4 89 1.2 NNW 22 37 12 20 1006.9 1006.4 0.0
13/10:00pm 22.5 20.4 20.6 89 1.2 N 32 46 17 25 1006.5 1006.0 0.0
13/09:30pm 22.6 19.8 20.3 87 1.5 N 35 50 19 27 1006.3 1005.8 0.0
13/09:08pm 22.8 19.7 20.5 87 1.5 N 37 57 20 31 1005.9 1005.4 0.0
13/09:00pm 22.9 19.9 20.6 87 1.5 N 37 54 20 29 1005.8 1005.3 0.0
13/08:33pm 23.0 19.5 20.5 86 1.6 N 39 57 21 31 1005.9 1005.4 0.0
13/08:30pm 23.0 19.2 20.5 86 1.6 N 41 57 22 31 1005.8 1005.3 0.0
13/08:00pm 23.1 19.3 20.6 86 1.6 N 41 56 22 30 1005.4 1005.0 0.0
13/07:30pm 23.2 18.8 20.2 83 1.9 N 43 57 23 31 1005.1 1004.7 0.0
13/07:00pm 23.3 18.4 20.2 83 2.0 NNE 46 69 25 37 1004.5 1004.1 0.0
13/06:30pm 23.4 19.9 20.3 83 2.0 NNE 39 59 21 32 1004.4 1004.0 0.0
13/06:00pm 23.6 19.2 20.1 81 2.3 NNE 43 65 23 35 1004.4 1004.0 0.0
13/05:31pm 23.8 19.4 20.1 80 2.4 NNE 43 63 23 34 1004.1 1003.7 0.0
13/05:30pm 23.8 19.2 20.1 80 2.4 NNE 44 61 24 33 1004.0 1003.6 0.0
13/05:00pm 23.8 20.3 20.3 81 2.3 NNE 39 57 21 31 1004.2 1003.8 0.0
13/04:30pm 24.2 20.3 20.3 79 2.5 NNE 41 59 22 32 1004.3 1003.9 0.0
13/04:00pm 24.4 20.6 20.5 79 2.6 NNE 41 59 22 32 1004.8 1004.4 0.0
13/03:41pm 24.4 20.5 20.3 78 2.7 NNE 41 59 22 32 1005.1 1004.7 0.0
13/03:30pm 24.5 20.2 20.4 78 2.7 NNE 43 59 23 32 1005.2 1004.8 0.0
13/03:00pm 24.7 21.0 20.0 75 3.1 NNE 39 59 21 32 1005.9 1005.4 0.0
13/02:35pm 24.7 21.5 20.2 76 2.9 NNE 37 57 20 31 1006.3 1005.8 0.0
13/02:30pm 24.6 21.2 19.9 75 3.0 NNE 37 54 20 29 1006.4 1005.9 0.0
13/02:00pm 24.4 20.3 19.9 76 2.9 NNE 41 63 22 34 1006.8 1006.3 0.0
13/01:30pm 24.7 20.9 19.8 74 3.2 NNE 39 57 21 31 1007.1 1006.6 0.0
13/01:24pm 24.6 20.8 19.7 74 3.2 NNE 39 57 21 31 1007.1 1006.6 0.0
13/01:00pm 25.0 21.0 19.4 71 3.6 NNE 39 54 21 29 1007.5 1007.0 0.0
13/12:30pm 24.8 20.9 19.6 73 3.4 NNE 39 54 21 29 1008.0 1007.5 0.0
13/12:00pm 24.9 21.7 19.5 72 3.5 NNE 35 50 19 27 1008.4 1007.9 0.0
13/11:30am 24.7 21.3 19.1 71 3.6 NNE 35 46 19 25 1008.6 1008.1 0.0
13/11:00am 24.7 21.7 18.6 69 3.9 NNE 32 44 17 24 1009.1 1008.6 0.0
13/10:30am 24.7 21.5 18.2 67 4.1 NNE 32 46 17 25 1009.2 1008.7 0.0
13/10:00am 24.3 22.4 18.5 70 3.7 NNE 26 37 14 20 1009.5 1009.0 0.0
13/09:30am 23.7 22.6 18.6 73 3.2 NNE 22 32 12 17 1009.8 1009.3 0.0
13/09:00am 23.4 22.6 18.5 74 3.1 N 20 28 11 15 1010.4 1009.9 0.0
13/08:30am 23.3 22.5 18.4 74 3.1 N 20 28 11 15 1010.3 1009.8 0.0
13/08:00am 22.7 22.0 18.7 78 2.5 N 20 26 11 14 1010.1 1009.6 0.0
13/07:30am 22.7 22.2 18.7 78 2.5 N 19 24 10 13 1010.4 1009.9 0.0
13/07:00am 22.2 21.6 18.4 79 2.4 N 19 26 10 14 1010.2 1009.7 0.0
13/06:30am 22.3 21.5 18.5 79 2.4 N 20 32 11 17 1009.9 1009.4 0.0
13/06:00am 22.0 20.3 18.2 79 2.4 N 24 33 13 18 1009.6 1009.1 0.0
13/05:30am 22.0 20.7 18.2 79 2.4 N 22 32 12 17 1009.7 1009.2 0.0
13/05:00am 22.0 21.0 18.8 82 2.0 N 22 28 12 15 1009.4 1008.9 0.0
13/04:30am 22.0 21.3 18.6 81 2.1 N 20 28 11 15 1009.6 1009.1 0.0
13/04:00am 22.1 21.0 18.7 81 2.2 N 22 32 12 17 1009.6 1009.1 0.0
13/03:30am 21.8 22.7 19.2 85 1.7 NNW 13 19 7 10 1010.3 1009.8 0.0
13/03:00am 21.7 22.5 19.1 85 1.7 NNW 13 19 7 10 1010.5 1010.0 0.0
13/02:30am 21.8 21.9 19.2 85 1.7 N 17 24 9 13 1010.6 1010.1 0.0
13/02:00am 22.0 21.6 19.4 85 1.7 N 20 26 11 14 1010.8 1010.3 0.0
13/01:30am 22.2 21.3 19.0 82 2.0 N 22 33 12 18 1011.0 1010.5 0.0
13/01:00am 22.2 21.2 18.8 81 2.2 N 22 32 12 17 1011.4 1011.0 0.0
13/12:30am 22.3 21.5 18.5 79 2.4 N 20 30 11 16 1011.6 1011.2 0.0
13/12:00am 22.5 20.3 17.8 75 2.9 N 26 35 14 19 1011.8 1011.4 0.0
 
Date/Time
EDT
Temp
°C
App
Temp
°C
Dew
Point
°C
Rel
Hum
%
Delta-T
°C
Wind Press
QNH
hPa
Press
MSL
hPa
Rain since
9am
mm
Dir  Spd
km/h
Gust
km/h
Spd
kts
Gust
kts
12/11:30pm 22.5 20.7 17.8 75 2.9 N 24 32 13 17 1012.0 1011.6 0.0
12/11:00pm 22.6 21.4 18.4 77 2.6 N 22 32 12 17 1012.5 1012.1 0.0
12/10:30pm 22.5 21.6 18.3 77 2.6 NNE 20 30 11 16 1012.7 1012.3 0.0
12/10:00pm 22.4 21.7 18.2 77 2.6 NNE 19 26 10 14 1013.1 1012.7 0.0
12/09:30pm 22.4 21.6 18.4 78 2.5 N 20 28 11 15 1013.0 1012.6 0.0
12/09:00pm 22.3 22.2 18.7 80 2.3 N 17 20 9 11 1013.7 1013.3 0.0
12/08:30pm 22.4 22.2 18.4 78 2.5 NE 17 22 9 12 1013.4 1013.0 0.0
12/08:00pm 22.8 21.9 18.3 76 2.8 NE 20 28 11 15 1013.4 1013.0 0.0
12/07:30pm 23.1 22.3 18.0 73 3.2 NE 19 24 10 13 1013.2 1012.8 0.0
12/07:00pm 23.3 21.8 17.7 71 3.5 NE 22 28 12 15 1012.7 1012.3 0.0
12/06:30pm 23.7 21.4 17.7 69 3.8 NE 26 32 14 17 1012.2 1011.8 0.0
12/06:00pm 24.7 23.0 17.2 63 4.7 ENE 22 30 12 16 1012.4 1012.0 0.0
12/05:30pm 25.7 24.1 18.4 64 4.6 ENE 24 30 13 16 1011.9 1011.5 0.0
12/05:00pm 27.1 26.1 17.6 56 6.0 ENE 19 24 10 13 1012.0 1011.6 0.0
12/04:30pm 28.8 28.8 18.0 52 6.9 ENE 15 22 8 12 1012.2 1011.8 0.0
12/04:00pm 28.5 28.9 18.9 56 6.2 E 15 20 8 11 1012.4 1012.0 0.0
12/03:30pm 29.5 29.9 19.8 56 6.4 ENE 17 20 9 11 1012.6 1012.2 0.0
12/03:00pm 28.6 28.5 18.7 55 6.4 ENE 17 20 9 11 1013.4 1013.0 0.0
12/02:30pm 29.0 28.9 18.7 53 6.7 ENE 17 24 9 13 1013.7 1013.3 0.0
12/02:00pm 28.9 28.9 18.9 54 6.5 E 17 24 9 13 1013.9 1013.5 0.0
12/01:30pm 28.9 28.9 18.9 54 6.5 ENE 17 22 9 12 1014.4 1014.0 0.0
12/01:00pm 28.6 29.1 19.2 56 6.1 ENE 15 17 8 9 1014.9 1014.5 0.0
12/12:30pm 28.3 28.8 20.1 61 5.4 ENE 17 20 9 11 1015.0 1014.6 0.0
12/12:00pm 28.2 28.9 19.7 60 5.6 ENE 15 20 8 11 1015.0 1014.6 0.0
12/11:30am 27.4 28.0 19.5 62 5.1 E 15 17 8 9 1015.6 1015.2 0.0
12/11:00am 26.8 27.0 18.6 60 5.2 E 15 17 8 9 1015.8 1015.4 0.0
12/10:30am 26.0 26.7 17.9 61 5.1 E 11 13 6 7 1015.9 1015.5 0.0
12/10:00am 25.7 26.4 17.9 62 4.9 E 11 13 6 7 1015.7 1015.3 0.0
12/09:30am 26.0 27.1 18.9 65 4.6 E 11 13 6 7 1015.7 1015.3 0.0
12/09:00am 25.0 26.0 17.7 64 4.6 ENE 9 11 5 6 1015.7 1015.3 0.0
12/08:30am 23.6 24.8 17.3 67 3.9 NNE 7 11 4 6 1015.6 1015.2 0.0
12/08:00am 22.7 24.8 17.2 71 3.4 NNW 2 7 1 4 1015.4 1015.0 0.0
12/07:30am 22.2 24.3 17.3 74 3.0 WNW 2 7 1 4 1015.1 1014.7 0.0
12/07:00am 21.2 22.3 17.2 78 2.5 W 7 11 4 6 1014.8 1014.4 0.0
12/06:30am 20.5 21.8 17.5 83 1.8 WNW 7 11 4 6 1014.6 1014.2 0.0
12/06:00am 20.4 21.3 17.6 84 1.7 WNW 9 15 5 8 1014.9 1014.5 0.0
12/05:30am 20.7 23.3 17.5 82 2.0 CALM 0 0 0 0 1014.7 1014.3 0.0
12/05:00am 20.6 22.0 17.8 84 1.7 E 7 9 4 5 1014.1 1013.7 0.0

Other Formats:

Comma delimited format used in spreadsheet applications
http://www.bom.gov.au/fwo/IDN60801/IDN60801.94599.axf

JavaScript Object Notation format (JSON) in row-major order
http://www.bom.gov.au/fwo/IDN60801/IDN60801.94599.json